sensor_id;sensor_type;location;lat;lon;timestamp;temperature;humidity
37806;DHT22;25082;50.870;0.022;2023-02-20T00:00:31;18.80;62.80
37806;DHT22;25082;50.870;0.022;2023-02-20T00:02:57;18.80;62.80
37806;DHT22;25082;50.870;0.022;2023-02-20T00:05:23;18.80;62.60
37806;DHT22;25082;50.870;0.022;2023-02-20T00:07:49;18.70;62.60
37806;DHT22;25082;50.870;0.022;2023-02-20T00:10:16;18.70;62.50
37806;DHT22;25082;50.870;0.022;2023-02-20T00:12:42;18.70;62.50
37806;DHT22;25082;50.870;0.022;2023-02-20T00:15:09;18.70;62.50
37806;DHT22;25082;50.870;0.022;2023-02-20T00:17:34;18.70;62.50
37806;DHT22;25082;50.870;0.022;2023-02-20T00:20:01;18.70;62.40
37806;DHT22;25082;50.870;0.022;2023-02-20T00:22:27;18.70;62.40
37806;DHT22;25082;50.870;0.022;2023-02-20T00:24:52;18.70;62.50
37806;DHT22;25082;50.870;0.022;2023-02-20T00:27:18;18.70;62.40
37806;DHT22;25082;50.870;0.022;2023-02-20T00:29:44;18.70;62.40
37806;DHT22;25082;50.870;0.022;2023-02-20T00:32:11;18.70;62.40
37806;DHT22;25082;50.870;0.022;2023-02-20T00:34:36;18.60;62.40
37806;DHT22;25082;50.870;0.022;2023-02-20T00:37:02;18.60;62.40
37806;DHT22;25082;50.870;0.022;2023-02-20T00:39:28;18.70;62.50
37806;DHT22;25082;50.870;0.022;2023-02-20T00:41:55;18.60;62.40
37806;DHT22;25082;50.870;0.022;2023-02-20T00:44:21;18.60;62.30
37806;DHT22;25082;50.870;0.022;2023-02-20T00:46:47;18.60;62.30
37806;DHT22;25082;50.870;0.022;2023-02-20T00:49:13;18.60;62.40
37806;DHT22;25082;50.870;0.022;2023-02-20T00:51:39;18.60;62.40
37806;DHT22;25082;50.870;0.022;2023-02-20T00:54:05;18.60;62.30
37806;DHT22;25082;50.870;0.022;2023-02-20T00:56:31;18.60;62.40
37806;DHT22;25082;50.870;0.022;2023-02-20T00:58:56;18.60;62.30
37806;DHT22;25082;50.870;0.022;2023-02-20T01:01:22;18.60;62.30
37806;DHT22;25082;50.870;0.022;2023-02-20T01:03:49;18.60;62.30
37806;DHT22;25082;50.870;0.022;2023-02-20T01:06:15;18.50;62.30
37806;DHT22;25082;50.870;0.022;2023-02-20T01:08:41;18.50;62.30
37806;DHT22;25082;50.870;0.022;2023-02-20T01:11:07;18.50;62.30
37806;DHT22;25082;50.870;0.022;2023-02-20T01:13:33;18.50;62.30
37806;DHT22;25082;50.870;0.022;2023-02-20T01:15:58;18.50;62.20
37806;DHT22;25082;50.870;0.022;2023-02-20T01:18:24;18.50;62.20
37806;DHT22;25082;50.870;0.022;2023-02-20T01:20:50;18.50;62.20
37806;DHT22;25082;50.870;0.022;2023-02-20T01:23:16;18.50;62.20
37806;DHT22;25082;50.870;0.022;2023-02-20T01:25:42;18.50;62.80
37806;DHT22;25082;50.870;0.022;2023-02-20T01:28:07;18.50;62.20
37806;DHT22;25082;50.870;0.022;2023-02-20T01:30:33;18.50;62.10
37806;DHT22;25082;50.870;0.022;2023-02-20T01:32:59;18.50;62.20
37806;DHT22;25082;50.870;0.022;2023-02-20T01:35:25;18.40;62.10
37806;DHT22;25082;50.870;0.022;2023-02-20T01:37:55;18.40;62.10
37806;DHT22;25082;50.870;0.022;2023-02-20T01:40:22;18.40;62.10
37806;DHT22;25082;50.870;0.022;2023-02-20T01:42:48;18.40;62.10
37806;DHT22;25082;50.870;0.022;2023-02-20T01:47:47;18.40;62.10
37806;DHT22;25082;50.870;0.022;2023-02-20T01:50:15;18.40;62.10
37806;DHT22;25082;50.870;0.022;2023-02-20T01:52:43;18.40;62.10
37806;DHT22;25082;50.870;0.022;2023-02-20T01:55:14;18.30;62.00
37806;DHT22;25082;50.870;0.022;2023-02-20T01:57:47;18.40;62.10
37806;DHT22;25082;50.870;0.022;2023-02-20T02:00:16;18.30;62.00
37806;DHT22;25082;50.870;0.022;2023-02-20T02:02:54;18.30;62.00
37806;DHT22;25082;50.870;0.022;2023-02-20T02:05:21;18.30;62.00
37806;DHT22;25082;50.870;0.022;2023-02-20T02:07:47;18.30;62.00
37806;DHT22;25082;50.870;0.022;2023-02-20T02:10:17;18.30;62.00
37806;DHT22;25082;50.870;0.022;2023-02-20T02:12:50;18.30;62.00
37806;DHT22;25082;50.870;0.022;2023-02-20T02:15:19;18.30;61.90
37806;DHT22;25082;50.870;0.022;2023-02-20T02:29:22;18.20;61.90
37806;DHT22;25082;50.870;0.022;2023-02-20T02:43:18;18.20;61.80
37806;DHT22;25082;50.870;0.022;2023-02-20T02:46:01;18.20;61.80
37806;DHT22;25082;50.870;0.022;2023-02-20T02:48:34;18.20;61.90
37806;DHT22;25082;50.870;0.022;2023-02-20T02:51:08;18.20;61.70
37806;DHT22;25082;50.870;0.022;2023-02-20T02:53:35;18.20;61.70
37806;DHT22;25082;50.870;0.022;2023-02-20T02:56:01;18.20;61.70
37806;DHT22;25082;50.870;0.022;2023-02-20T02:58:47;18.10;61.70
37806;DHT22;25082;50.870;0.022;2023-02-20T03:01:14;18.20;61.70
37806;DHT22;25082;50.870;0.022;2023-02-20T03:03:42;18.10;61.60
37806;DHT22;25082;50.870;0.022;2023-02-20T03:06:19;18.10;61.60
37806;DHT22;25082;50.870;0.022;2023-02-20T03:08:53;18.10;61.60
37806;DHT22;25082;50.870;0.022;2023-02-20T03:11:26;18.10;61.60
37806;DHT22;25082;50.870;0.022;2023-02-20T03:13:56;18.10;61.60
37806;DHT22;25082;50.870;0.022;2023-02-20T03:16:50;18.10;61.60
37806;DHT22;25082;50.870;0.022;2023-02-20T03:19:27;18.10;61.50
37806;DHT22;25082;50.870;0.022;2023-02-20T03:21:56;18.10;61.50
37806;DHT22;25082;50.870;0.022;2023-02-20T03:24:25;18.10;61.40
37806;DHT22;25082;50.870;0.022;2023-02-20T03:26:54;18.10;61.50
37806;DHT22;25082;50.870;0.022;2023-02-20T03:29:32;18.00;61.40
37806;DHT22;25082;50.870;0.022;2023-02-20T03:32:06;18.00;61.40
37806;DHT22;25082;50.870;0.022;2023-02-20T03:34:54;18.00;61.40
37806;DHT22;25082;50.870;0.022;2023-02-20T03:37:42;18.00;61.40
37806;DHT22;25082;50.870;0.022;2023-02-20T03:40:28;18.00;61.20
37806;DHT22;25082;50.870;0.022;2023-02-20T03:43:18;17.90;61.30
37806;DHT22;25082;50.870;0.022;2023-02-20T03:45:51;18.00;61.40
37806;DHT22;25082;50.870;0.022;2023-02-20T03:48:36;18.00;61.30
37806;DHT22;25082;50.870;0.022;2023-02-20T03:51:04;17.90;61.20
37806;DHT22;25082;50.870;0.022;2023-02-20T03:53:36;17.90;61.30
37806;DHT22;25082;50.870;0.022;2023-02-20T03:56:05;17.90;61.30
37806;DHT22;25082;50.870;0.022;2023-02-20T03:58:34;17.90;61.20
37806;DHT22;25082;50.870;0.022;2023-02-20T04:01:02;17.90;61.20
37806;DHT22;25082;50.870;0.022;2023-02-20T04:03:33;17.90;61.20
37806;DHT22;25082;50.870;0.022;2023-02-20T04:06:01;17.90;61.20
37806;DHT22;25082;50.870;0.022;2023-02-20T04:08:32;17.90;61.20
37806;DHT22;25082;50.870;0.022;2023-02-20T04:11:13;17.90;61.20
37806;DHT22;25082;50.870;0.022;2023-02-20T04:13:40;17.90;61.10
37806;DHT22;25082;50.870;0.022;2023-02-20T04:16:06;17.90;61.10
37806;DHT22;25082;50.870;0.022;2023-02-20T04:18:33;17.90;61.00
37806;DHT22;25082;50.870;0.022;2023-02-20T04:21:02;17.90;61.10
37806;DHT22;25082;50.870;0.022;2023-02-20T04:23:30;17.80;60.90
37806;DHT22;25082;50.870;0.022;2023-02-20T04:26:03;17.90;61.10
37806;DHT22;25082;50.870;0.022;2023-02-20T04:28:30;17.80;61.10
37806;DHT22;25082;50.870;0.022;2023-02-20T04:30:56;17.80;61.10
37806;DHT22;25082;50.870;0.022;2023-02-20T04:33:22;17.80;61.10
37806;DHT22;25082;50.870;0.022;2023-02-20T04:35:48;17.80;60.90
37806;DHT22;25082;50.870;0.022;2023-02-20T04:38:14;17.80;60.90
37806;DHT22;25082;50.870;0.022;2023-02-20T04:40:40;17.80;60.90
37806;DHT22;25082;50.870;0.022;2023-02-20T04:43:05;17.80;60.90
37806;DHT22;25082;50.870;0.022;2023-02-20T04:45:32;17.80;60.90
37806;DHT22;25082;50.870;0.022;2023-02-20T04:47:57;17.80;61.00
37806;DHT22;25082;50.870;0.022;2023-02-20T04:50:29;17.80;60.90
37806;DHT22;25082;50.870;0.022;2023-02-20T04:52:55;17.80;60.90
37806;DHT22;25082;50.870;0.022;2023-02-20T04:55:22;17.70;60.90
37806;DHT22;25082;50.870;0.022;2023-02-20T04:57:48;17.70;60.80
37806;DHT22;25082;50.870;0.022;2023-02-20T05:00:17;17.70;60.80
37806;DHT22;25082;50.870;0.022;2023-02-20T05:02:43;17.70;60.90
37806;DHT22;25082;50.870;0.022;2023-02-20T05:05:24;17.70;60.80
37806;DHT22;25082;50.870;0.022;2023-02-20T05:07:58;17.70;60.70
37806;DHT22;25082;50.870;0.022;2023-02-20T05:10:25;17.70;60.80
37806;DHT22;25082;50.870;0.022;2023-02-20T05:12:51;17.70;60.80
37806;DHT22;25082;50.870;0.022;2023-02-20T05:15:18;17.70;60.90
37806;DHT22;25082;50.870;0.022;2023-02-20T05:17:44;17.70;60.80
37806;DHT22;25082;50.870;0.022;2023-02-20T05:20:10;17.70;60.80
37806;DHT22;25082;50.870;0.022;2023-02-20T05:22:36;17.70;60.80
37806;DHT22;25082;50.870;0.022;2023-02-20T05:25:02;17.70;60.90
37806;DHT22;25082;50.870;0.022;2023-02-20T05:27:28;17.70;60.90
37806;DHT22;25082;50.870;0.022;2023-02-20T05:29:56;17.60;60.80
37806;DHT22;25082;50.870;0.022;2023-02-20T05:32:24;17.60;60.70
37806;DHT22;25082;50.870;0.022;2023-02-20T05:34:50;17.60;60.80
37806;DHT22;25082;50.870;0.022;2023-02-20T05:37:17;17.60;60.80
37806;DHT22;25082;50.870;0.022;2023-02-20T05:39:45;17.60;60.80
37806;DHT22;25082;50.870;0.022;2023-02-20T05:42:10;17.60;60.80
37806;DHT22;25082;50.870;0.022;2023-02-20T05:44:37;17.60;60.80
37806;DHT22;25082;50.870;0.022;2023-02-20T05:47:04;17.60;60.80
37806;DHT22;25082;50.870;0.022;2023-02-20T05:49:29;17.60;60.70
37806;DHT22;25082;50.870;0.022;2023-02-20T05:51:56;17.60;60.70
37806;DHT22;25082;50.870;0.022;2023-02-20T05:54:23;17.60;60.80
37806;DHT22;25082;50.870;0.022;2023-02-20T05:56:50;17.60;60.80
37806;DHT22;25082;50.870;0.022;2023-02-20T05:59:18;17.60;60.80
37806;DHT22;25082;50.870;0.022;2023-02-20T06:01:44;17.60;60.80
37806;DHT22;25082;50.870;0.022;2023-02-20T06:04:10;17.60;60.80
37806;DHT22;25082;50.870;0.022;2023-02-20T06:06:38;17.50;60.80
37806;DHT22;25082;50.870;0.022;2023-02-20T06:09:06;17.50;60.70
37806;DHT22;25082;50.870;0.022;2023-02-20T06:11:33;17.50;60.70
37806;DHT22;25082;50.870;0.022;2023-02-20T06:13:59;17.50;60.70
37806;DHT22;25082;50.870;0.022;2023-02-20T06:16:27;17.50;60.60
37806;DHT22;25082;50.870;0.022;2023-02-20T06:18:54;17.50;60.70
37806;DHT22;25082;50.870;0.022;2023-02-20T06:21:21;17.50;60.70
37806;DHT22;25082;50.870;0.022;2023-02-20T06:23:48;17.50;60.70
37806;DHT22;25082;50.870;0.022;2023-02-20T06:26:15;17.50;61.00
37806;DHT22;25082;50.870;0.022;2023-02-20T06:28:41;17.50;60.70
37806;DHT22;25082;50.870;0.022;2023-02-20T06:31:08;17.50;60.80
37806;DHT22;25082;50.870;0.022;2023-02-20T06:33:34;17.50;60.80
37806;DHT22;25082;50.870;0.022;2023-02-20T06:36:01;17.50;60.90
37806;DHT22;25082;50.870;0.022;2023-02-20T06:38:27;17.50;60.90
37806;DHT22;25082;50.870;0.022;2023-02-20T06:40:53;17.50;60.90
37806;DHT22;25082;50.870;0.022;2023-02-20T06:43:19;17.50;60.90
37806;DHT22;25082;50.870;0.022;2023-02-20T06:45:45;17.50;60.90
37806;DHT22;25082;50.870;0.022;2023-02-20T06:48:12;17.50;60.90
37806;DHT22;25082;50.870;0.022;2023-02-20T06:50:42;17.50;60.90
37806;DHT22;25082;50.870;0.022;2023-02-20T06:53:08;17.50;60.90
37806;DHT22;25082;50.870;0.022;2023-02-20T06:55:33;17.50;60.90
37806;DHT22;25082;50.870;0.022;2023-02-20T06:57:59;17.50;60.90
37806;DHT22;25082;50.870;0.022;2023-02-20T07:00:26;17.40;60.80
37806;DHT22;25082;50.870;0.022;2023-02-20T07:02:52;17.40;60.80
37806;DHT22;25082;50.870;0.022;2023-02-20T07:05:18;17.40;60.80
37806;DHT22;25082;50.870;0.022;2023-02-20T07:07:43;17.50;60.90
37806;DHT22;25082;50.870;0.022;2023-02-20T07:10:09;17.40;60.80
37806;DHT22;25082;50.870;0.022;2023-02-20T07:12:35;17.40;60.80
37806;DHT22;25082;50.870;0.022;2023-02-20T07:15:05;17.40;60.80
37806;DHT22;25082;50.870;0.022;2023-02-20T07:17:31;17.40;60.80
37806;DHT22;25082;50.870;0.022;2023-02-20T07:19:57;17.40;60.80
37806;DHT22;25082;50.870;0.022;2023-02-20T07:22:23;17.40;60.80
37806;DHT22;25082;50.870;0.022;2023-02-20T07:24:52;17.40;60.80
37806;DHT22;25082;50.870;0.022;2023-02-20T07:27:18;17.40;60.90
37806;DHT22;25082;50.870;0.022;2023-02-20T07:29:45;17.40;60.90
37806;DHT22;25082;50.870;0.022;2023-02-20T07:32:12;17.40;60.90
37806;DHT22;25082;50.870;0.022;2023-02-20T07:34:38;17.30;60.80
37806;DHT22;25082;50.870;0.022;2023-02-20T07:37:04;17.30;60.80
37806;DHT22;25082;50.870;0.022;2023-02-20T07:39:30;17.40;60.90
37806;DHT22;25082;50.870;0.022;2023-02-20T07:41:55;17.40;60.90
37806;DHT22;25082;50.870;0.022;2023-02-20T07:44:21;17.30;60.80
37806;DHT22;25082;50.870;0.022;2023-02-20T07:46:47;17.30;60.80
37806;DHT22;25082;50.870;0.022;2023-02-20T07:49:12;17.30;60.90
37806;DHT22;25082;50.870;0.022;2023-02-20T07:51:38;17.30;60.80
37806;DHT22;25082;50.870;0.022;2023-02-20T07:54:04;17.30;60.90
37806;DHT22;25082;50.870;0.022;2023-02-20T07:56:30;17.30;60.90
37806;DHT22;25082;50.870;0.022;2023-02-20T07:58:55;17.30;60.90
37806;DHT22;25082;50.870;0.022;2023-02-20T08:01:21;17.30;60.90
37806;DHT22;25082;50.870;0.022;2023-02-20T08:03:47;17.30;60.90
37806;DHT22;25082;50.870;0.022;2023-02-20T08:06:15;17.30;61.00
37806;DHT22;25082;50.870;0.022;2023-02-20T08:08:41;17.30;61.00
37806;DHT22;25082;50.870;0.022;2023-02-20T08:11:07;17.30;61.00
37806;DHT22;25082;50.870;0.022;2023-02-20T08:13:33;17.30;61.00
37806;DHT22;25082;50.870;0.022;2023-02-20T08:15:59;17.30;60.90
37806;DHT22;25082;50.870;0.022;2023-02-20T08:18:24;17.30;60.90
37806;DHT22;25082;50.870;0.022;2023-02-20T08:20:50;17.30;61.00
37806;DHT22;25082;50.870;0.022;2023-02-20T08:23:19;17.40;61.00
37806;DHT22;25082;50.870;0.022;2023-02-20T08:25:45;17.40;60.90
37806;DHT22;25082;50.870;0.022;2023-02-20T08:28:12;17.40;60.90
37806;DHT22;25082;50.870;0.022;2023-02-20T08:30:38;17.40;61.00
37806;DHT22;25082;50.870;0.022;2023-02-20T08:33:04;17.50;61.00
37806;DHT22;25082;50.870;0.022;2023-02-20T08:35:31;17.50;61.00
37806;DHT22;25082;50.870;0.022;2023-02-20T08:38:05;17.50;61.00
37806;DHT22;25082;50.870;0.022;2023-02-20T08:40:31;17.60;61.70
37806;DHT22;25082;50.870;0.022;2023-02-20T08:42:57;17.60;61.10
37806;DHT22;25082;50.870;0.022;2023-02-20T08:45:23;17.60;61.10
37806;DHT22;25082;50.870;0.022;2023-02-20T08:47:49;17.60;61.10
37806;DHT22;25082;50.870;0.022;2023-02-20T08:50:17;17.60;61.10
37806;DHT22;25082;50.870;0.022;2023-02-20T08:52:43;17.70;61.20
37806;DHT22;25082;50.870;0.022;2023-02-20T08:55:09;17.70;61.20
37806;DHT22;25082;50.870;0.022;2023-02-20T08:57:35;17.70;61.20
37806;DHT22;25082;50.870;0.022;2023-02-20T09:00:03;17.70;61.20
37806;DHT22;25082;50.870;0.022;2023-02-20T09:02:29;17.70;61.20
37806;DHT22;25082;50.870;0.022;2023-02-20T09:04:55;17.70;61.20
37806;DHT22;25082;50.870;0.022;2023-02-20T09:07:21;17.80;61.30
37806;DHT22;25082;50.870;0.022;2023-02-20T09:09:47;17.80;61.30
37806;DHT22;25082;50.870;0.022;2023-02-20T09:12:15;17.80;61.30
37806;DHT22;25082;50.870;0.022;2023-02-20T09:14:41;17.80;61.40
37806;DHT22;25082;50.870;0.022;2023-02-20T09:17:07;17.80;61.40
37806;DHT22;25082;50.870;0.022;2023-02-20T09:19:33;17.80;61.30
37806;DHT22;25082;50.870;0.022;2023-02-20T09:21:59;17.90;62.00
37806;DHT22;25082;50.870;0.022;2023-02-20T09:24:24;17.90;61.40
37806;DHT22;25082;50.870;0.022;2023-02-20T09:26:56;17.90;61.40
37806;DHT22;25082;50.870;0.022;2023-02-20T09:29:22;17.90;61.40
37806;DHT22;25082;50.870;0.022;2023-02-20T09:31:48;17.90;61.50
37806;DHT22;25082;50.870;0.022;2023-02-20T09:34:14;17.90;61.50
37806;DHT22;25082;50.870;0.022;2023-02-20T09:36:39;17.90;61.40
37806;DHT22;25082;50.870;0.022;2023-02-20T09:39:05;17.90;61.50
37806;DHT22;25082;50.870;0.022;2023-02-20T09:44:14;18.00;61.80
37806;DHT22;25082;50.870;0.022;2023-02-20T09:46:44;17.90;62.50
37806;DHT22;25082;50.870;0.022;2023-02-20T09:49:18;18.00;62.60
37806;DHT22;25082;50.870;0.022;2023-02-20T09:51:59;18.00;63.00
37806;DHT22;25082;50.870;0.022;2023-02-20T09:54:36;18.00;63.20
37806;DHT22;25082;50.870;0.022;2023-02-20T09:57:09;18.00;63.30
37806;DHT22;25082;50.870;0.022;2023-02-20T10:02:30;18.00;63.60
37806;DHT22;25082;50.870;0.022;2023-02-20T10:05:01;18.10;63.70
37806;DHT22;25082;50.870;0.022;2023-02-20T10:07:38;18.10;63.70
37806;DHT22;25082;50.870;0.022;2023-02-20T10:10:23;18.10;63.80
37806;DHT22;25082;50.870;0.022;2023-02-20T10:18:20;18.10;63.90
37806;DHT22;25082;50.870;0.022;2023-02-20T10:21:21;18.10;63.90
37806;DHT22;25082;50.870;0.022;2023-02-20T10:23:53;18.20;63.90
37806;DHT22;25082;50.870;0.022;2023-02-20T10:28:51;18.20;64.00
37806;DHT22;25082;50.870;0.022;2023-02-20T10:31:36;18.20;64.00
37806;DHT22;25082;50.870;0.022;2023-02-20T10:34:08;18.20;64.20
37806;DHT22;25082;50.870;0.022;2023-02-20T10:36:51;18.20;64.30
37806;DHT22;25082;50.870;0.022;2023-02-20T10:39:20;18.20;64.40
37806;DHT22;25082;50.870;0.022;2023-02-20T10:47:15;18.20;64.40
37806;DHT22;25082;50.870;0.022;2023-02-20T10:52:28;18.30;64.40
37806;DHT22;25082;50.870;0.022;2023-02-20T10:55:05;18.30;64.30
37806;DHT22;25082;50.870;0.022;2023-02-20T10:57:43;18.30;64.50
37806;DHT22;25082;50.870;0.022;2023-02-20T11:00:16;18.30;64.30
37806;DHT22;25082;50.870;0.022;2023-02-20T11:03:07;18.30;64.30
37806;DHT22;25082;50.870;0.022;2023-02-20T11:05:39;18.30;64.20
37806;DHT22;25082;50.870;0.022;2023-02-20T11:08:07;18.30;64.20
37806;DHT22;25082;50.870;0.022;2023-02-20T11:10:33;18.40;64.30
37806;DHT22;25082;50.870;0.022;2023-02-20T11:13:00;18.40;64.30
37806;DHT22;25082;50.870;0.022;2023-02-20T11:15:29;18.40;64.30
37806;DHT22;25082;50.870;0.022;2023-02-20T11:17:57;18.40;64.30
37806;DHT22;25082;50.870;0.022;2023-02-20T11:23:08;18.40;64.20
37806;DHT22;25082;50.870;0.022;2023-02-20T11:25:36;18.40;64.20
37806;DHT22;25082;50.870;0.022;2023-02-20T11:28:22;18.40;64.30
37806;DHT22;25082;50.870;0.022;2023-02-20T11:30:57;18.50;64.20
37806;DHT22;25082;50.870;0.022;2023-02-20T11:33:29;18.40;64.20
37806;DHT22;25082;50.870;0.022;2023-02-20T11:36:07;18.50;64.20
37806;DHT22;25082;50.870;0.022;2023-02-20T11:38:35;18.50;64.30
37806;DHT22;25082;50.870;0.022;2023-02-20T11:41:04;18.50;64.00
37806;DHT22;25082;50.870;0.022;2023-02-20T11:43:42;18.40;64.30
37806;DHT22;25082;50.870;0.022;2023-02-20T11:46:22;18.50;64.20
37806;DHT22;25082;50.870;0.022;2023-02-20T11:49:08;18.50;64.20
37806;DHT22;25082;50.870;0.022;2023-02-20T11:51:44;18.50;64.10
37806;DHT22;25082;50.870;0.022;2023-02-20T11:54:37;18.50;64.10
37806;DHT22;25082;50.870;0.022;2023-02-20T12:07:33;18.50;63.40
37806;DHT22;25082;50.870;0.022;2023-02-20T12:12:40;18.30;62.20
37806;DHT22;25082;50.870;0.022;2023-02-20T12:15:12;18.30;62.70
37806;DHT22;25082;50.870;0.022;2023-02-20T12:18:02;18.30;63.00
37806;DHT22;25082;50.870;0.022;2023-02-20T12:20:31;18.30;63.00
37806;DHT22;25082;50.870;0.022;2023-02-20T12:26:37;18.40;62.90
37806;DHT22;25082;50.870;0.022;2023-02-20T12:34:45;18.20;59.60
37806;DHT22;25082;50.870;0.022;2023-02-20T12:51:38;18.20;62.30
37806;DHT22;25082;50.870;0.022;2023-02-20T12:59:53;18.40;66.10
37806;DHT22;25082;50.870;0.022;2023-02-20T13:02:38;18.50;67.60
37806;DHT22;25082;50.870;0.022;2023-02-20T13:05:08;18.50;68.50
37806;DHT22;25082;50.870;0.022;2023-02-20T13:12:37;18.70;66.30
37806;DHT22;25082;50.870;0.022;2023-02-20T13:18:19;18.70;65.50
37806;DHT22;25082;50.870;0.022;2023-02-20T13:20:51;18.70;65.30
37806;DHT22;25082;50.870;0.022;2023-02-20T13:25:46;18.70;65.10
37806;DHT22;25082;50.870;0.022;2023-02-20T13:30:38;18.80;64.70
37806;DHT22;25082;50.870;0.022;2023-02-20T13:33:18;18.70;64.50
37806;DHT22;25082;50.870;0.022;2023-02-20T13:35:53;18.70;64.30
37806;DHT22;25082;50.870;0.022;2023-02-20T13:38:21;18.70;64.10
37806;DHT22;25082;50.870;0.022;2023-02-20T13:45:48;18.70;63.80
37806;DHT22;25082;50.870;0.022;2023-02-20T13:56:19;18.70;63.90
37806;DHT22;25082;50.870;0.022;2023-02-20T13:58:46;18.70;63.90
37806;DHT22;25082;50.870;0.022;2023-02-20T14:01:12;18.70;63.90
37806;DHT22;25082;50.870;0.022;2023-02-20T14:03:38;18.70;63.90
37806;DHT22;25082;50.870;0.022;2023-02-20T14:08:37;18.70;63.70
37806;DHT22;25082;50.870;0.022;2023-02-20T14:11:09;18.60;60.40
37806;DHT22;25082;50.870;0.022;2023-02-20T14:13:36;18.50;61.90
37806;DHT22;25082;50.870;0.022;2023-02-20T14:16:02;18.40;62.70
37806;DHT22;25082;50.870;0.022;2023-02-20T14:18:33;18.50;62.90
37806;DHT22;25082;50.870;0.022;2023-02-20T14:21:18;18.50;63.00
37806;DHT22;25082;50.870;0.022;2023-02-20T14:23:45;18.50;63.10
37806;DHT22;25082;50.870;0.022;2023-02-20T14:26:18;18.60;63.20
37806;DHT22;25082;50.870;0.022;2023-02-20T14:28:46;18.60;63.10
37806;DHT22;25082;50.870;0.022;2023-02-20T14:31:25;18.60;63.20
37806;DHT22;25082;50.870;0.022;2023-02-20T14:33:59;18.70;63.20
37806;DHT22;25082;50.870;0.022;2023-02-20T14:39:42;18.70;63.20
37806;DHT22;25082;50.870;0.022;2023-02-20T14:42:22;18.70;62.30
37806;DHT22;25082;50.870;0.022;2023-02-20T14:45:08;18.50;59.50
37806;DHT22;25082;50.870;0.022;2023-02-20T14:47:55;18.30;60.20
37806;DHT22;25082;50.870;0.022;2023-02-20T14:50:27;18.30;61.50
37806;DHT22;25082;50.870;0.022;2023-02-20T14:53:19;18.30;62.00
37806;DHT22;25082;50.870;0.022;2023-02-20T14:55:48;18.40;63.60
37806;DHT22;25082;50.870;0.022;2023-02-20T14:58:17;18.50;63.10
37806;DHT22;25082;50.870;0.022;2023-02-20T15:00:45;18.50;62.60
37806;DHT22;25082;50.870;0.022;2023-02-20T15:05:44;18.60;62.70
37806;DHT22;25082;50.870;0.022;2023-02-20T15:10:50;18.60;62.70
37806;DHT22;25082;50.870;0.022;2023-02-20T15:13:20;18.60;62.80
37806;DHT22;25082;50.870;0.022;2023-02-20T15:16:13;18.60;62.80
37806;DHT22;25082;50.870;0.022;2023-02-20T15:18:43;18.70;63.00
37806;DHT22;25082;50.870;0.022;2023-02-20T15:21:11;18.70;63.00
37806;DHT22;25082;50.870;0.022;2023-02-20T15:23:40;18.70;63.00
37806;DHT22;25082;50.870;0.022;2023-02-20T15:26:25;18.70;63.00
37806;DHT22;25082;50.870;0.022;2023-02-20T15:32:06;18.70;63.00
37806;DHT22;25082;50.870;0.022;2023-02-20T15:34:33;18.70;63.10
37806;DHT22;25082;50.870;0.022;2023-02-20T15:37:00;18.70;63.10
37806;DHT22;25082;50.870;0.022;2023-02-20T15:39:28;18.70;63.10
37806;DHT22;25082;50.870;0.022;2023-02-20T15:41:54;18.80;63.10
37806;DHT22;25082;50.870;0.022;2023-02-20T15:44:19;18.80;63.10
37806;DHT22;25082;50.870;0.022;2023-02-20T15:46:46;18.80;63.10
37806;DHT22;25082;50.870;0.022;2023-02-20T15:49:12;18.80;63.30
37806;DHT22;25082;50.870;0.022;2023-02-20T15:51:39;18.80;63.20
37806;DHT22;25082;50.870;0.022;2023-02-20T15:54:10;18.80;63.00
37806;DHT22;25082;50.870;0.022;2023-02-20T15:56:39;18.80;62.90
37806;DHT22;25082;50.870;0.022;2023-02-20T15:59:09;18.80;62.90
37806;DHT22;25082;50.870;0.022;2023-02-20T16:01:36;18.80;62.90
37806;DHT22;25082;50.870;0.022;2023-02-20T16:04:04;18.80;62.90
37806;DHT22;25082;50.870;0.022;2023-02-20T16:06:30;18.80;62.90
37806;DHT22;25082;50.870;0.022;2023-02-20T16:08:56;18.80;62.90
37806;DHT22;25082;50.870;0.022;2023-02-20T16:11:25;18.80;62.80
37806;DHT22;25082;50.870;0.022;2023-02-20T16:13:55;18.80;62.80
37806;DHT22;25082;50.870;0.022;2023-02-20T16:16:27;18.80;62.80
37806;DHT22;25082;50.870;0.022;2023-02-20T16:18:53;18.80;62.80
37806;DHT22;25082;50.870;0.022;2023-02-20T16:21:20;18.80;62.80
37806;DHT22;25082;50.870;0.022;2023-02-20T16:23:46;18.80;62.80
37806;DHT22;25082;50.870;0.022;2023-02-20T16:26:17;18.80;62.80
37806;DHT22;25082;50.870;0.022;2023-02-20T16:28:54;18.80;62.80
37806;DHT22;25082;50.870;0.022;2023-02-20T16:31:20;18.70;62.70
37806;DHT22;25082;50.870;0.022;2023-02-20T16:33:46;18.80;62.70
37806;DHT22;25082;50.870;0.022;2023-02-20T16:36:13;18.70;62.70
37806;DHT22;25082;50.870;0.022;2023-02-20T16:38:39;18.80;62.70
37806;DHT22;25082;50.870;0.022;2023-02-20T16:41:05;18.80;62.70
37806;DHT22;25082;50.870;0.022;2023-02-20T16:43:31;18.80;62.70
37806;DHT22;25082;50.870;0.022;2023-02-20T16:45:57;18.80;62.70
37806;DHT22;25082;50.870;0.022;2023-02-20T16:48:22;18.80;62.80
37806;DHT22;25082;50.870;0.022;2023-02-20T16:50:51;18.70;62.60
37806;DHT22;25082;50.870;0.022;2023-02-20T16:53:18;18.70;62.60
37806;DHT22;25082;50.870;0.022;2023-02-20T16:55:43;18.80;62.60
37806;DHT22;25082;50.870;0.022;2023-02-20T16:58:11;18.80;62.70
37806;DHT22;25082;50.870;0.022;2023-02-20T17:00:40;18.80;62.70
37806;DHT22;25082;50.870;0.022;2023-02-20T17:03:07;18.80;62.70
37806;DHT22;25082;50.870;0.022;2023-02-20T17:05:35;18.80;62.70
37806;DHT22;25082;50.870;0.022;2023-02-20T17:08:02;18.80;62.60
37806;DHT22;25082;50.870;0.022;2023-02-20T17:10:28;18.80;62.70
37806;DHT22;25082;50.870;0.022;2023-02-20T17:12:55;18.80;62.70
37806;DHT22;25082;50.870;0.022;2023-02-20T17:15:22;18.80;62.70
37806;DHT22;25082;50.870;0.022;2023-02-20T17:17:49;18.80;62.60
37806;DHT22;25082;50.870;0.022;2023-02-20T17:20:17;18.80;62.80
37806;DHT22;25082;50.870;0.022;2023-02-20T17:22:44;18.80;62.70
37806;DHT22;25082;50.870;0.022;2023-02-20T17:25:16;18.80;62.80
37806;DHT22;25082;50.870;0.022;2023-02-20T17:27:43;18.80;62.80
37806;DHT22;25082;50.870;0.022;2023-02-20T17:30:09;18.80;63.10
37806;DHT22;25082;50.870;0.022;2023-02-20T17:32:35;18.80;62.90
37806;DHT22;25082;50.870;0.022;2023-02-20T17:35:00;18.80;62.80
37806;DHT22;25082;50.870;0.022;2023-02-20T17:37:26;18.80;62.80
37806;DHT22;25082;50.870;0.022;2023-02-20T17:39:56;18.90;62.90
37806;DHT22;25082;50.870;0.022;2023-02-20T17:42:22;18.90;62.90
37806;DHT22;25082;50.870;0.022;2023-02-20T17:44:48;18.80;62.80
37806;DHT22;25082;50.870;0.022;2023-02-20T17:47:15;18.90;63.00
37806;DHT22;25082;50.870;0.022;2023-02-20T17:49:41;18.90;63.00
37806;DHT22;25082;50.870;0.022;2023-02-20T17:52:07;18.90;63.00
37806;DHT22;25082;50.870;0.022;2023-02-20T17:54:33;18.90;63.00